sensor_id;sensor_type;location;lat;lon;timestamp;temperature;humidity
12827;DHT22;66927;48.812;9.118;2023-04-25T00:00:51;10.30;99.90
12827;DHT22;66927;48.812;9.118;2023-04-25T00:03:18;10.30;99.90
12827;DHT22;66927;48.812;9.118;2023-04-25T00:05:43;10.40;99.90
12827;DHT22;66927;48.812;9.118;2023-04-25T00:08:10;10.40;99.90
12827;DHT22;66927;48.812;9.118;2023-04-25T00:10:36;10.50;99.90
12827;DHT22;66927;48.812;9.118;2023-04-25T00:13:02;10.60;99.90
12827;DHT22;66927;48.812;9.118;2023-04-25T00:15:28;10.50;99.90
12827;DHT22;66927;48.812;9.118;2023-04-25T00:17:56;10.60;99.90
12827;DHT22;66927;48.812;9.118;2023-04-25T00:20:22;10.60;99.90
12827;DHT22;66927;48.812;9.118;2023-04-25T00:22:49;10.60;99.90
12827;DHT22;66927;48.812;9.118;2023-04-25T00:25:16;10.60;99.90
12827;DHT22;66927;48.812;9.118;2023-04-25T00:27:41;10.70;99.90
12827;DHT22;66927;48.812;9.118;2023-04-25T00:30:08;10.70;99.90
12827;DHT22;66927;48.812;9.118;2023-04-25T00:32:33;10.70;99.90
12827;DHT22;66927;48.812;9.118;2023-04-25T00:35:01;10.70;99.90
12827;DHT22;66927;48.812;9.118;2023-04-25T00:37:27;10.70;99.90
12827;DHT22;66927;48.812;9.118;2023-04-25T00:39:53;10.70;99.90
12827;DHT22;66927;48.812;9.118;2023-04-25T00:42:21;10.70;99.90
12827;DHT22;66927;48.812;9.118;2023-04-25T00:44:49;10.70;99.90
12827;DHT22;66927;48.812;9.118;2023-04-25T00:47:15;10.70;99.90
12827;DHT22;66927;48.812;9.118;2023-04-25T00:49:42;10.60;99.90
12827;DHT22;66927;48.812;9.118;2023-04-25T00:52:07;10.70;99.90
12827;DHT22;66927;48.812;9.118;2023-04-25T00:54:33;10.70;99.90
12827;DHT22;66927;48.812;9.118;2023-04-25T00:56:59;10.80;99.90
12827;DHT22;66927;48.812;9.118;2023-04-25T00:59:26;10.80;99.90
12827;DHT22;66927;48.812;9.118;2023-04-25T01:01:53;10.90;99.90
12827;DHT22;66927;48.812;9.118;2023-04-25T01:04:19;10.80;99.90
12827;DHT22;66927;48.812;9.118;2023-04-25T01:06:45;10.80;99.90
12827;DHT22;66927;48.812;9.118;2023-04-25T01:09:11;10.90;99.90
12827;DHT22;66927;48.812;9.118;2023-04-25T01:11:39;10.90;99.90
12827;DHT22;66927;48.812;9.118;2023-04-25T01:14:06;10.90;99.90
12827;DHT22;66927;48.812;9.118;2023-04-25T01:16:33;10.90;99.90
12827;DHT22;66927;48.812;9.118;2023-04-25T01:18:59;10.80;99.90
12827;DHT22;66927;48.812;9.118;2023-04-25T01:21:25;10.70;99.90
12827;DHT22;66927;48.812;9.118;2023-04-25T01:23:53;10.70;99.90
12827;DHT22;66927;48.812;9.118;2023-04-25T01:26:20;10.60;99.90
12827;DHT22;66927;48.812;9.118;2023-04-25T01:28:47;10.60;99.90
12827;DHT22;66927;48.812;9.118;2023-04-25T01:31:14;10.70;99.90
12827;DHT22;66927;48.812;9.118;2023-04-25T01:33:41;10.60;99.90
12827;DHT22;66927;48.812;9.118;2023-04-25T01:36:06;10.70;99.90
12827;DHT22;66927;48.812;9.118;2023-04-25T01:38:33;10.70;99.90
12827;DHT22;66927;48.812;9.118;2023-04-25T01:40:58;10.50;99.90
12827;DHT22;66927;48.812;9.118;2023-04-25T01:43:25;10.40;99.90
12827;DHT22;66927;48.812;9.118;2023-04-25T01:45:52;10.40;99.90
12827;DHT22;66927;48.812;9.118;2023-04-25T01:48:19;10.40;99.90
12827;DHT22;66927;48.812;9.118;2023-04-25T01:50:48;10.40;99.90
12827;DHT22;66927;48.812;9.118;2023-04-25T01:53:14;10.40;99.90
12827;DHT22;66927;48.812;9.118;2023-04-25T01:55:41;10.30;99.90
12827;DHT22;66927;48.812;9.118;2023-04-25T01:58:08;10.30;99.90
12827;DHT22;66927;48.812;9.118;2023-04-25T02:00:38;10.40;99.90
12827;DHT22;66927;48.812;9.118;2023-04-25T02:03:05;10.40;99.90
12827;DHT22;66927;48.812;9.118;2023-04-25T02:05:35;10.50;99.90
12827;DHT22;66927;48.812;9.118;2023-04-25T02:08:01;10.50;99.90
12827;DHT22;66927;48.812;9.118;2023-04-25T02:10:27;10.60;99.90
12827;DHT22;66927;48.812;9.118;2023-04-25T02:12:56;10.50;99.90
12827;DHT22;66927;48.812;9.118;2023-04-25T02:15:28;10.50;99.90
12827;DHT22;66927;48.812;9.118;2023-04-25T02:17:53;10.50;99.90
12827;DHT22;66927;48.812;9.118;2023-04-25T02:20:22;10.50;99.90
12827;DHT22;66927;48.812;9.118;2023-04-25T02:22:48;10.50;99.90
12827;DHT22;66927;48.812;9.118;2023-04-25T02:25:14;10.60;99.90
12827;DHT22;66927;48.812;9.118;2023-04-25T02:27:42;10.50;99.90
12827;DHT22;66927;48.812;9.118;2023-04-25T02:30:08;10.40;99.90
12827;DHT22;66927;48.812;9.118;2023-04-25T02:32:34;10.40;99.90
12827;DHT22;66927;48.812;9.118;2023-04-25T02:35:01;10.40;99.90
12827;DHT22;66927;48.812;9.118;2023-04-25T02:37:34;10.40;99.90
12827;DHT22;66927;48.812;9.118;2023-04-25T02:40:01;10.50;99.90
12827;DHT22;66927;48.812;9.118;2023-04-25T02:42:28;10.60;99.90
12827;DHT22;66927;48.812;9.118;2023-04-25T02:44:55;10.60;99.90
12827;DHT22;66927;48.812;9.118;2023-04-25T02:47:21;10.60;99.90
12827;DHT22;66927;48.812;9.118;2023-04-25T02:49:47;10.50;99.90
12827;DHT22;66927;48.812;9.118;2023-04-25T02:52:13;10.40;99.90
12827;DHT22;66927;48.812;9.118;2023-04-25T02:54:40;10.40;99.90
12827;DHT22;66927;48.812;9.118;2023-04-25T02:57:06;10.40;99.90
12827;DHT22;66927;48.812;9.118;2023-04-25T02:59:33;10.30;99.90
12827;DHT22;66927;48.812;9.118;2023-04-25T03:01:59;10.30;99.90
12827;DHT22;66927;48.812;9.118;2023-04-25T03:04:24;10.40;99.90
12827;DHT22;66927;48.812;9.118;2023-04-25T03:06:51;10.30;99.90
12827;DHT22;66927;48.812;9.118;2023-04-25T03:09:17;10.10;99.90
12827;DHT22;66927;48.812;9.118;2023-04-25T03:11:45;10.10;99.90
12827;DHT22;66927;48.812;9.118;2023-04-25T03:14:11;10.10;99.90
12827;DHT22;66927;48.812;9.118;2023-04-25T03:16:37;10.10;99.90
12827;DHT22;66927;48.812;9.118;2023-04-25T03:19:03;10.20;99.90
12827;DHT22;66927;48.812;9.118;2023-04-25T03:21:33;10.30;99.90
12827;DHT22;66927;48.812;9.118;2023-04-25T03:24:01;10.30;99.90
12827;DHT22;66927;48.812;9.118;2023-04-25T03:26:27;10.30;99.90
12827;DHT22;66927;48.812;9.118;2023-04-25T03:28:53;10.30;99.90
12827;DHT22;66927;48.812;9.118;2023-04-25T03:31:21;10.30;99.90
12827;DHT22;66927;48.812;9.118;2023-04-25T03:33:48;10.30;99.90
12827;DHT22;66927;48.812;9.118;2023-04-25T03:36:14;10.30;99.90
12827;DHT22;66927;48.812;9.118;2023-04-25T03:38:40;10.30;99.90
12827;DHT22;66927;48.812;9.118;2023-04-25T03:41:07;10.30;99.90
12827;DHT22;66927;48.812;9.118;2023-04-25T03:43:33;10.30;99.90
12827;DHT22;66927;48.812;9.118;2023-04-25T03:46:00;10.20;99.90
12827;DHT22;66927;48.812;9.118;2023-04-25T03:48:29;10.10;99.90
12827;DHT22;66927;48.812;9.118;2023-04-25T03:50:54;10.10;99.90
12827;DHT22;66927;48.812;9.118;2023-04-25T03:53:20;10.20;99.90
12827;DHT22;66927;48.812;9.118;2023-04-25T03:55:46;10.20;99.90
12827;DHT22;66927;48.812;9.118;2023-04-25T03:58:12;10.10;99.90
12827;DHT22;66927;48.812;9.118;2023-04-25T04:00:37;10.20;99.90
12827;DHT22;66927;48.812;9.118;2023-04-25T04:03:03;10.10;99.90
12827;DHT22;66927;48.812;9.118;2023-04-25T04:05:28;10.20;99.90
12827;DHT22;66927;48.812;9.118;2023-04-25T04:07:55;10.10;99.90
12827;DHT22;66927;48.812;9.118;2023-04-25T04:10:21;10.20;99.90
12827;DHT22;66927;48.812;9.118;2023-04-25T04:12:46;10.20;99.90
12827;DHT22;66927;48.812;9.118;2023-04-25T04:15:12;10.30;99.90
12827;DHT22;66927;48.812;9.118;2023-04-25T04:17:39;10.30;99.90
12827;DHT22;66927;48.812;9.118;2023-04-25T04:20:07;10.30;99.90
12827;DHT22;66927;48.812;9.118;2023-04-25T04:22:34;10.20;99.90
12827;DHT22;66927;48.812;9.118;2023-04-25T04:25:00;10.20;99.90
12827;DHT22;66927;48.812;9.118;2023-04-25T04:27:26;10.20;99.90
12827;DHT22;66927;48.812;9.118;2023-04-25T04:29:54;10.20;99.90
12827;DHT22;66927;48.812;9.118;2023-04-25T04:32:21;10.20;99.90
12827;DHT22;66927;48.812;9.118;2023-04-25T04:34:52;10.30;99.90
12827;DHT22;66927;48.812;9.118;2023-04-25T04:37:20;10.30;99.90
12827;DHT22;66927;48.812;9.118;2023-04-25T04:39:52;10.30;99.90
12827;DHT22;66927;48.812;9.118;2023-04-25T04:42:17;10.30;99.90
12827;DHT22;66927;48.812;9.118;2023-04-25T04:44:43;10.20;99.90
12827;DHT22;66927;48.812;9.118;2023-04-25T04:47:10;10.30;99.90
12827;DHT22;66927;48.812;9.118;2023-04-25T04:49:36;10.30;99.90
12827;DHT22;66927;48.812;9.118;2023-04-25T04:52:01;10.30;99.90
12827;DHT22;66927;48.812;9.118;2023-04-25T04:54:29;10.30;99.90
12827;DHT22;66927;48.812;9.118;2023-04-25T04:56:55;10.10;99.90
12827;DHT22;66927;48.812;9.118;2023-04-25T04:59:22;10.10;99.90
12827;DHT22;66927;48.812;9.118;2023-04-25T05:01:48;10.00;99.90
12827;DHT22;66927;48.812;9.118;2023-04-25T05:04:14;9.90;99.90
12827;DHT22;66927;48.812;9.118;2023-04-25T05:06:39;9.90;99.90
12827;DHT22;66927;48.812;9.118;2023-04-25T05:09:05;9.80;99.90
12827;DHT22;66927;48.812;9.118;2023-04-25T05:11:31;9.90;99.90
12827;DHT22;66927;48.812;9.118;2023-04-25T05:13:57;9.90;99.90
12827;DHT22;66927;48.812;9.118;2023-04-25T05:16:22;10.00;99.90
12827;DHT22;66927;48.812;9.118;2023-04-25T05:18:49;10.00;99.90
12827;DHT22;66927;48.812;9.118;2023-04-25T05:21:15;9.90;99.90
12827;DHT22;66927;48.812;9.118;2023-04-25T05:23:41;9.70;99.90
12827;DHT22;66927;48.812;9.118;2023-04-25T05:26:07;9.80;99.90
12827;DHT22;66927;48.812;9.118;2023-04-25T05:28:40;9.70;99.90
12827;DHT22;66927;48.812;9.118;2023-04-25T05:31:07;9.80;99.90
12827;DHT22;66927;48.812;9.118;2023-04-25T05:33:32;9.80;99.90
12827;DHT22;66927;48.812;9.118;2023-04-25T05:35:58;9.90;99.90
12827;DHT22;66927;48.812;9.118;2023-04-25T05:38:23;9.90;99.90
12827;DHT22;66927;48.812;9.118;2023-04-25T05:40:49;9.80;99.90
12827;DHT22;66927;48.812;9.118;2023-04-25T05:43:15;9.80;99.90
12827;DHT22;66927;48.812;9.118;2023-04-25T05:45:41;9.70;99.90
12827;DHT22;66927;48.812;9.118;2023-04-25T05:48:06;9.60;99.90
12827;DHT22;66927;48.812;9.118;2023-04-25T05:50:32;9.60;99.90
12827;DHT22;66927;48.812;9.118;2023-04-25T05:52:57;9.70;99.90
12827;DHT22;66927;48.812;9.118;2023-04-25T05:55:23;9.70;99.90
12827;DHT22;66927;48.812;9.118;2023-04-25T05:57:49;9.70;99.90
12827;DHT22;66927;48.812;9.118;2023-04-25T06:00:15;9.70;99.90
12827;DHT22;66927;48.812;9.118;2023-04-25T06:02:41;9.70;99.90
12827;DHT22;66927;48.812;9.118;2023-04-25T06:05:07;9.70;99.90
12827;DHT22;66927;48.812;9.118;2023-04-25T06:07:33;9.70;99.90
12827;DHT22;66927;48.812;9.118;2023-04-25T06:09:59;9.80;99.90
12827;DHT22;66927;48.812;9.118;2023-04-25T06:12:26;9.90;99.90
12827;DHT22;66927;48.812;9.118;2023-04-25T06:14:51;9.80;99.90
12827;DHT22;66927;48.812;9.118;2023-04-25T06:17:17;9.70;99.90
12827;DHT22;66927;48.812;9.118;2023-04-25T06:19:43;9.70;99.90
12827;DHT22;66927;48.812;9.118;2023-04-25T06:22:09;9.80;99.90
12827;DHT22;66927;48.812;9.118;2023-04-25T06:24:35;9.80;99.90
12827;DHT22;66927;48.812;9.118;2023-04-25T06:27:01;9.70;99.90
12827;DHT22;66927;48.812;9.118;2023-04-25T06:29:28;9.70;99.90
12827;DHT22;66927;48.812;9.118;2023-04-25T06:31:53;9.80;99.90
12827;DHT22;66927;48.812;9.118;2023-04-25T06:34:19;9.80;99.90
12827;DHT22;66927;48.812;9.118;2023-04-25T06:36:45;9.90;99.90
12827;DHT22;66927;48.812;9.118;2023-04-25T06:39:10;9.70;99.90
12827;DHT22;66927;48.812;9.118;2023-04-25T06:41:37;9.80;99.90
12827;DHT22;66927;48.812;9.118;2023-04-25T06:44:03;9.80;99.90
12827;DHT22;66927;48.812;9.118;2023-04-25T06:46:28;9.90;99.90
12827;DHT22;66927;48.812;9.118;2023-04-25T06:48:54;9.90;99.90
12827;DHT22;66927;48.812;9.118;2023-04-25T06:51:20;10.00;99.90
12827;DHT22;66927;48.812;9.118;2023-04-25T06:53:46;10.00;99.90
12827;DHT22;66927;48.812;9.118;2023-04-25T06:56:12;10.10;99.90
12827;DHT22;66927;48.812;9.118;2023-04-25T06:58:37;10.10;99.90
12827;DHT22;66927;48.812;9.118;2023-04-25T07:01:03;10.10;99.90
12827;DHT22;66927;48.812;9.118;2023-04-25T07:03:30;10.10;99.90
12827;DHT22;66927;48.812;9.118;2023-04-25T07:05:55;10.10;99.90
12827;DHT22;66927;48.812;9.118;2023-04-25T07:08:24;10.10;99.90
12827;DHT22;66927;48.812;9.118;2023-04-25T07:10:50;10.20;99.90
12827;DHT22;66927;48.812;9.118;2023-04-25T07:13:15;10.20;99.90
12827;DHT22;66927;48.812;9.118;2023-04-25T07:15:41;10.10;99.90
12827;DHT22;66927;48.812;9.118;2023-04-25T07:18:08;10.20;99.90
12827;DHT22;66927;48.812;9.118;2023-04-25T07:20:33;10.00;99.90
12827;DHT22;66927;48.812;9.118;2023-04-25T07:23:00;9.90;99.90
12827;DHT22;66927;48.812;9.118;2023-04-25T07:25:27;9.90;99.90
12827;DHT22;66927;48.812;9.118;2023-04-25T07:27:53;9.90;99.90
12827;DHT22;66927;48.812;9.118;2023-04-25T07:30:19;9.90;99.90
12827;DHT22;66927;48.812;9.118;2023-04-25T07:32:44;9.90;99.90
12827;DHT22;66927;48.812;9.118;2023-04-25T07:35:10;9.90;99.90
12827;DHT22;66927;48.812;9.118;2023-04-25T07:37:36;9.90;99.90
12827;DHT22;66927;48.812;9.118;2023-04-25T07:40:05;9.80;99.90
12827;DHT22;66927;48.812;9.118;2023-04-25T07:42:31;9.80;99.90
12827;DHT22;66927;48.812;9.118;2023-04-25T07:44:57;9.80;99.90
12827;DHT22;66927;48.812;9.118;2023-04-25T07:47:23;9.80;99.90
12827;DHT22;66927;48.812;9.118;2023-04-25T07:49:48;9.80;99.90
12827;DHT22;66927;48.812;9.118;2023-04-25T07:52:14;9.80;99.90
12827;DHT22;66927;48.812;9.118;2023-04-25T07:54:40;9.70;99.90
12827;DHT22;66927;48.812;9.118;2023-04-25T07:57:07;9.50;99.90
12827;DHT22;66927;48.812;9.118;2023-04-25T07:59:32;9.60;99.90
12827;DHT22;66927;48.812;9.118;2023-04-25T08:01:58;9.50;99.90
12827;DHT22;66927;48.812;9.118;2023-04-25T08:04:24;9.60;99.90
12827;DHT22;66927;48.812;9.118;2023-04-25T08:06:51;9.50;99.90
12827;DHT22;66927;48.812;9.118;2023-04-25T08:09:17;9.60;99.90
12827;DHT22;66927;48.812;9.118;2023-04-25T08:11:43;9.70;99.90
12827;DHT22;66927;48.812;9.118;2023-04-25T08:14:09;9.70;99.90
12827;DHT22;66927;48.812;9.118;2023-04-25T08:16:34;9.60;99.90
12827;DHT22;66927;48.812;9.118;2023-04-25T08:19:00;9.50;99.90
12827;DHT22;66927;48.812;9.118;2023-04-25T08:21:26;9.40;99.90
12827;DHT22;66927;48.812;9.118;2023-04-25T08:23:52;9.30;99.90
12827;DHT22;66927;48.812;9.118;2023-04-25T08:26:18;9.30;99.90
12827;DHT22;66927;48.812;9.118;2023-04-25T08:28:44;9.30;99.90
12827;DHT22;66927;48.812;9.118;2023-04-25T08:31:09;9.40;99.90
12827;DHT22;66927;48.812;9.118;2023-04-25T08:33:35;9.40;99.90
12827;DHT22;66927;48.812;9.118;2023-04-25T08:36:02;9.50;99.90
12827;DHT22;66927;48.812;9.118;2023-04-25T08:38:27;9.50;99.90
12827;DHT22;66927;48.812;9.118;2023-04-25T08:40:54;9.40;99.90
12827;DHT22;66927;48.812;9.118;2023-04-25T08:43:20;9.40;99.90
12827;DHT22;66927;48.812;9.118;2023-04-25T08:45:47;9.40;99.90
12827;DHT22;66927;48.812;9.118;2023-04-25T08:48:14;9.40;99.90
12827;DHT22;66927;48.812;9.118;2023-04-25T08:50:53;9.30;99.90
12827;DHT22;66927;48.812;9.118;2023-04-25T08:53:26;9.30;99.90
12827;DHT22;66927;48.812;9.118;2023-04-25T08:56:01;9.20;99.90
12827;DHT22;66927;48.812;9.118;2023-04-25T08:58:28;9.10;99.90
12827;DHT22;66927;48.812;9.118;2023-04-25T09:00:54;9.20;99.90
12827;DHT22;66927;48.812;9.118;2023-04-25T09:03:20;9.20;99.90
12827;DHT22;66927;48.812;9.118;2023-04-25T09:05:46;9.20;99.90
12827;DHT22;66927;48.812;9.118;2023-04-25T09:08:11;9.30;99.90
12827;DHT22;66927;48.812;9.118;2023-04-25T09:10:38;9.20;99.90
12827;DHT22;66927;48.812;9.118;2023-04-25T09:13:09;9.30;99.90
12827;DHT22;66927;48.812;9.118;2023-04-25T09:15:49;9.30;99.90
12827;DHT22;66927;48.812;9.118;2023-04-25T09:18:26;9.30;99.90
12827;DHT22;66927;48.812;9.118;2023-04-25T09:20:57;9.40;99.90
12827;DHT22;66927;48.812;9.118;2023-04-25T09:23:23;9.40;99.90
12827;DHT22;66927;48.812;9.118;2023-04-25T09:25:51;9.50;99.90
12827;DHT22;66927;48.812;9.118;2023-04-25T09:28:23;9.50;99.90
12827;DHT22;66927;48.812;9.118;2023-04-25T09:30:55;9.50;99.90
12827;DHT22;66927;48.812;9.118;2023-04-25T09:33:42;9.50;99.90
12827;DHT22;66927;48.812;9.118;2023-04-25T09:36:10;9.50;99.90
12827;DHT22;66927;48.812;9.118;2023-04-25T09:38:44;9.50;99.90
12827;DHT22;66927;48.812;9.118;2023-04-25T09:41:10;9.50;99.90
12827;DHT22;66927;48.812;9.118;2023-04-25T09:43:36;9.40;99.90
12827;DHT22;66927;48.812;9.118;2023-04-25T09:46:09;9.30;99.90
12827;DHT22;66927;48.812;9.118;2023-04-25T09:48:36;9.30;99.90
12827;DHT22;66927;48.812;9.118;2023-04-25T09:51:13;9.30;99.90
12827;DHT22;66927;48.812;9.118;2023-04-25T09:53:43;9.30;99.90
12827;DHT22;66927;48.812;9.118;2023-04-25T09:56:10;9.30;99.90
12827;DHT22;66927;48.812;9.118;2023-04-25T09:58:38;9.30;99.90
12827;DHT22;66927;48.812;9.118;2023-04-25T10:01:09;9.20;99.90
12827;DHT22;66927;48.812;9.118;2023-04-25T10:03:36;9.10;99.90
12827;DHT22;66927;48.812;9.118;2023-04-25T10:06:07;9.00;99.90
12827;DHT22;66927;48.812;9.118;2023-04-25T10:08:35;9.00;99.90
12827;DHT22;66927;48.812;9.118;2023-04-25T10:11:04;9.10;99.90
12827;DHT22;66927;48.812;9.118;2023-04-25T10:13:30;8.90;99.90
12827;DHT22;66927;48.812;9.118;2023-04-25T10:16:00;8.80;99.90
12827;DHT22;66927;48.812;9.118;2023-04-25T10:18:28;8.70;99.90
12827;DHT22;66927;48.812;9.118;2023-04-25T10:20:55;8.70;99.90
12827;DHT22;66927;48.812;9.118;2023-04-25T10:23:22;8.70;99.90
12827;DHT22;66927;48.812;9.118;2023-04-25T10:25:50;8.60;99.90
12827;DHT22;66927;48.812;9.118;2023-04-25T10:28:16;8.70;99.90
12827;DHT22;66927;48.812;9.118;2023-04-25T10:31:03;8.80;99.90
12827;DHT22;66927;48.812;9.118;2023-04-25T10:33:43;9.00;99.90
12827;DHT22;66927;48.812;9.118;2023-04-25T10:36:18;9.00;99.90
12827;DHT22;66927;48.812;9.118;2023-04-25T10:38:45;9.10;99.90
12827;DHT22;66927;48.812;9.118;2023-04-25T10:41:12;9.20;99.90
12827;DHT22;66927;48.812;9.118;2023-04-25T10:43:43;9.30;99.90
12827;DHT22;66927;48.812;9.118;2023-04-25T10:46:18;9.30;99.90
12827;DHT22;66927;48.812;9.118;2023-04-25T10:48:48;9.40;99.90
12827;DHT22;66927;48.812;9.118;2023-04-25T10:56:25;9.40;99.90
12827;DHT22;66927;48.812;9.118;2023-04-25T10:58:51;9.50;99.90
12827;DHT22;66927;48.812;9.118;2023-04-25T11:01:21;9.50;99.90
12827;DHT22;66927;48.812;9.118;2023-04-25T11:03:57;9.50;99.90
12827;DHT22;66927;48.812;9.118;2023-04-25T11:06:29;9.50;99.90
12827;DHT22;66927;48.812;9.118;2023-04-25T11:09:00;9.50;99.90
12827;DHT22;66927;48.812;9.118;2023-04-25T11:11:29;9.40;99.90
12827;DHT22;66927;48.812;9.118;2023-04-25T11:13:54;9.50;99.90
12827;DHT22;66927;48.812;9.118;2023-04-25T11:16:24;9.40;99.90
12827;DHT22;66927;48.812;9.118;2023-04-25T11:18:50;9.30;99.90
12827;DHT22;66927;48.812;9.118;2023-04-25T11:21:16;9.20;99.90
12827;DHT22;66927;48.812;9.118;2023-04-25T11:23:45;9.20;99.90
12827;DHT22;66927;48.812;9.118;2023-04-25T11:26:12;9.10;99.90
12827;DHT22;66927;48.812;9.118;2023-04-25T11:28:38;9.20;99.90
12827;DHT22;66927;48.812;9.118;2023-04-25T11:31:04;9.20;99.90
12827;DHT22;66927;48.812;9.118;2023-04-25T11:33:30;9.20;99.90
12827;DHT22;66927;48.812;9.118;2023-04-25T11:35:56;9.00;99.90
12827;DHT22;66927;48.812;9.118;2023-04-25T11:38:22;8.90;99.90
12827;DHT22;66927;48.812;9.118;2023-04-25T11:40:53;9.00;99.90
12827;DHT22;66927;48.812;9.118;2023-04-25T11:43:22;8.90;99.90
12827;DHT22;66927;48.812;9.118;2023-04-25T11:45:49;8.90;99.90
12827;DHT22;66927;48.812;9.118;2023-04-25T11:48:16;9.10;99.90
12827;DHT22;66927;48.812;9.118;2023-04-25T11:50:42;9.10;99.90
12827;DHT22;66927;48.812;9.118;2023-04-25T11:53:08;9.10;99.90
12827;DHT22;66927;48.812;9.118;2023-04-25T11:55:34;8.80;99.90
12827;DHT22;66927;48.812;9.118;2023-04-25T11:58:00;8.90;99.90
12827;DHT22;66927;48.812;9.118;2023-04-25T12:00:27;9.00;99.90
12827;DHT22;66927;48.812;9.118;2023-04-25T12:02:55;9.00;99.90
12827;DHT22;66927;48.812;9.118;2023-04-25T12:05:25;9.00;99.90
12827;DHT22;66927;48.812;9.118;2023-04-25T12:07:51;9.00;99.90
12827;DHT22;66927;48.812;9.118;2023-04-25T12:10:18;9.00;99.90
12827;DHT22;66927;48.812;9.118;2023-04-25T12:12:47;9.10;99.90
12827;DHT22;66927;48.812;9.118;2023-04-25T12:15:18;9.10;99.90
12827;DHT22;66927;48.812;9.118;2023-04-25T12:17:48;9.20;99.90
12827;DHT22;66927;48.812;9.118;2023-04-25T12:20:15;9.10;99.90
12827;DHT22;66927;48.812;9.118;2023-04-25T12:22:46;9.00;99.90
12827;DHT22;66927;48.812;9.118;2023-04-25T12:25:39;8.90;99.90
12827;DHT22;66927;48.812;9.118;2023-04-25T12:28:18;8.90;99.90
12827;DHT22;66927;48.812;9.118;2023-04-25T12:30:59;9.10;99.90
12827;DHT22;66927;48.812;9.118;2023-04-25T12:33:27;9.10;99.90
12827;DHT22;66927;48.812;9.118;2023-04-25T12:35:54;9.20;99.90
12827;DHT22;66927;48.812;9.118;2023-04-25T12:38:28;9.30;99.90
12827;DHT22;66927;48.812;9.118;2023-04-25T12:40:59;9.40;99.90
12827;DHT22;66927;48.812;9.118;2023-04-25T12:43:26;9.60;99.90
12827;DHT22;66927;48.812;9.118;2023-04-25T12:45:55;9.80;99.90
12827;DHT22;66927;48.812;9.118;2023-04-25T12:48:22;9.90;99.90
12827;DHT22;66927;48.812;9.118;2023-04-25T12:50:49;10.10;99.90
12827;DHT22;66927;48.812;9.118;2023-04-25T12:53:16;10.10;99.90
12827;DHT22;66927;48.812;9.118;2023-04-25T12:55:43;10.10;99.90
12827;DHT22;66927;48.812;9.118;2023-04-25T12:58:11;10.10;99.90
12827;DHT22;66927;48.812;9.118;2023-04-25T13:00:37;10.10;99.90
12827;DHT22;66927;48.812;9.118;2023-04-25T13:03:03;10.10;99.90
12827;DHT22;66927;48.812;9.118;2023-04-25T13:05:30;9.80;99.90
12827;DHT22;66927;48.812;9.118;2023-04-25T13:07:56;9.80;99.90
12827;DHT22;66927;48.812;9.118;2023-04-25T13:10:22;9.70;99.90
12827;DHT22;66927;48.812;9.118;2023-04-25T13:12:48;9.70;99.90
12827;DHT22;66927;48.812;9.118;2023-04-25T13:15:14;9.70;99.90
12827;DHT22;66927;48.812;9.118;2023-04-25T13:17:41;9.90;99.90
12827;DHT22;66927;48.812;9.118;2023-04-25T13:20:08;10.00;99.90
12827;DHT22;66927;48.812;9.118;2023-04-25T13:22:38;10.10;99.90
12827;DHT22;66927;48.812;9.118;2023-04-25T13:25:06;10.20;99.90
12827;DHT22;66927;48.812;9.118;2023-04-25T13:27:32;10.20;99.90
12827;DHT22;66927;48.812;9.118;2023-04-25T13:30:03;10.30;99.90
12827;DHT22;66927;48.812;9.118;2023-04-25T13:32:33;10.30;99.90
12827;DHT22;66927;48.812;9.118;2023-04-25T13:35:02;10.20;99.90
12827;DHT22;66927;48.812;9.118;2023-04-25T13:37:28;10.00;99.90
12827;DHT22;66927;48.812;9.118;2023-04-25T13:39:55;10.00;99.90
12827;DHT22;66927;48.812;9.118;2023-04-25T13:42:22;10.10;99.90
12827;DHT22;66927;48.812;9.118;2023-04-25T13:44:48;10.20;99.90
12827;DHT22;66927;48.812;9.118;2023-04-25T13:47:14;10.20;99.90
12827;DHT22;66927;48.812;9.118;2023-04-25T13:49:39;10.30;99.90
12827;DHT22;66927;48.812;9.118;2023-04-25T13:52:06;10.40;99.90
12827;DHT22;66927;48.812;9.118;2023-04-25T13:54:31;10.40;99.90
12827;DHT22;66927;48.812;9.118;2023-04-25T13:56:57;10.40;99.90
12827;DHT22;66927;48.812;9.118;2023-04-25T13:59:25;10.40;99.90
12827;DHT22;66927;48.812;9.118;2023-04-25T14:01:53;10.30;99.90
12827;DHT22;66927;48.812;9.118;2023-04-25T14:04:19;10.30;99.90
12827;DHT22;66927;48.812;9.118;2023-04-25T14:06:45;10.30;99.90
12827;DHT22;66927;48.812;9.118;2023-04-25T14:09:11;10.50;99.90
12827;DHT22;66927;48.812;9.118;2023-04-25T14:11:38;10.60;99.90
12827;DHT22;66927;48.812;9.118;2023-04-25T14:14:04;10.70;99.90
12827;DHT22;66927;48.812;9.118;2023-04-25T14:16:30;11.00;99.90
12827;DHT22;66927;48.812;9.118;2023-04-25T14:18:59;11.20;99.90
12827;DHT22;66927;48.812;9.118;2023-04-25T14:21:26;11.30;99.90
12827;DHT22;66927;48.812;9.118;2023-04-25T14:23:52;11.40;99.90
12827;DHT22;66927;48.812;9.118;2023-04-25T14:26:18;11.40;99.90
12827;DHT22;66927;48.812;9.118;2023-04-25T14:28:44;11.60;99.90
12827;DHT22;66927;48.812;9.118;2023-04-25T14:31:09;11.40;99.90
12827;DHT22;66927;48.812;9.118;2023-04-25T14:33:42;11.40;99.90
12827;DHT22;66927;48.812;9.118;2023-04-25T14:36:09;11.30;99.90
12827;DHT22;66927;48.812;9.118;2023-04-25T14:38:34;11.30;99.90
12827;DHT22;66927;48.812;9.118;2023-04-25T14:41:00;11.20;99.90
12827;DHT22;66927;48.812;9.118;2023-04-25T14:43:26;11.10;99.90
12827;DHT22;66927;48.812;9.118;2023-04-25T14:45:52;11.10;99.90
12827;DHT22;66927;48.812;9.118;2023-04-25T14:48:18;11.20;99.90
12827;DHT22;66927;48.812;9.118;2023-04-25T14:50:45;11.40;99.90
12827;DHT22;66927;48.812;9.118;2023-04-25T14:53:11;11.30;99.90
12827;DHT22;66927;48.812;9.118;2023-04-25T14:55:38;11.30;99.90
12827;DHT22;66927;48.812;9.118;2023-04-25T14:58:05;11.00;99.90
12827;DHT22;66927;48.812;9.118;2023-04-25T15:00:31;11.00;99.90
12827;DHT22;66927;48.812;9.118;2023-04-25T15:02:57;11.00;99.90
12827;DHT22;66927;48.812;9.118;2023-04-25T15:05:25;11.00;99.90
12827;DHT22;66927;48.812;9.118;2023-04-25T15:07:51;10.80;99.90
12827;DHT22;66927;48.812;9.118;2023-04-25T15:10:18;10.90;99.90
12827;DHT22;66927;48.812;9.118;2023-04-25T15:12:44;10.80;99.90
12827;DHT22;66927;48.812;9.118;2023-04-25T15:15:10;10.90;99.90
12827;DHT22;66927;48.812;9.118;2023-04-25T15:17:42;10.90;99.90
12827;DHT22;66927;48.812;9.118;2023-04-25T15:20:10;11.10;99.90
12827;DHT22;66927;48.812;9.118;2023-04-25T15:22:38;11.20;99.90
12827;DHT22;66927;48.812;9.118;2023-04-25T15:25:04;11.30;99.90
12827;DHT22;66927;48.812;9.118;2023-04-25T15:27:30;11.20;99.90
12827;DHT22;66927;48.812;9.118;2023-04-25T15:29:56;11.30;99.90
12827;DHT22;66927;48.812;9.118;2023-04-25T15:32:22;11.40;99.90
12827;DHT22;66927;48.812;9.118;2023-04-25T15:34:48;11.30;99.90
12827;DHT22;66927;48.812;9.118;2023-04-25T15:37:15;11.30;99.90
12827;DHT22;66927;48.812;9.118;2023-04-25T15:39:41;11.30;99.90
12827;DHT22;66927;48.812;9.118;2023-04-25T15:42:07;11.30;99.90